Time;durP1;ratioP1;P1;durP2;ratioP2;P2;SDS_P1;SDS_P2;PMS_P1;PMS_P2;Temp;Humidity;BMP_temperature;BMP_pressure;BME280_temperature;BME280_humidity;BME280_pressure;Samples;Min_cycle;Max_cycle;Signal;HPM_P1;HPM_P2
2023/05/06 00:02:16;;;;;;;12.50;4.90;;;;;;;11.13;59.23;100756.51;106058;1251;83198;-61
2023/05/06 00:04:44;;;;;;;8.40;4.90;;;;;;;11.14;59.16;100753.31;106080;1247;72534;-61
2023/05/06 00:07:12;;;;;;;11.10;4.90;;;;;;;11.14;59.29;100753.13;105998;1248;69051;-62
2023/05/06 00:09:41;;;;;;;10.30;4.80;;;;;;;11.13;59.36;100754.06;106046;1251;69057;-62
2023/05/06 00:12:09;;;;;;;9.90;4.80;;;;;;;11.12;59.38;100751.12;106033;1247;74101;-61
2023/05/06 00:14:37;;;;;;;6.90;4.00;;;;;;;11.13;59.46;100750.23;106134;1248;82964;-61
2023/05/06 00:17:06;;;;;;;7.10;4.50;;;;;;;11.15;59.58;100747.69;106005;1248;73750;-62
2023/05/06 00:19:34;;;;;;;7.70;4.60;;;;;;;11.16;59.57;100738.39;106096;1251;69167;-61
2023/05/06 00:22:02;;;;;;;9.10;4.90;;;;;;;11.16;59.67;100733.64;106039;1251;69563;-61
2023/05/06 00:24:30;;;;;;;10.00;4.80;;;;;;;11.16;59.67;100732.94;106064;1251;74149;-62
2023/05/06 00:26:58;;;;;;;10.40;4.70;;;;;;;11.15;59.71;100734.92;106036;1251;83615;-61
2023/05/06 00:29:26;;;;;;;11.50;5.30;;;;;;;11.13;59.79;100732.90;106060;1251;73876;-61
2023/05/06 00:31:54;;;;;;;8.70;5.00;;;;;;;11.12;59.81;100728.20;106009;1248;69106;-61
2023/05/06 00:34:23;;;;;;;7.00;4.40;;;;;;;11.12;59.97;100728.58;106046;1248;69090;-61
2023/05/06 00:36:51;;;;;;;11.30;4.50;;;;;;;11.13;60.02;100728.70;106055;1251;72708;-61
2023/05/06 00:39:20;;;;;;;6.20;4.50;;;;;;;11.12;59.86;100731.54;105961;1252;83145;-61
2023/05/06 00:41:48;;;;;;;12.40;4.80;;;;;;;11.11;60.05;100732.26;106132;1251;74036;-61
2023/05/06 00:44:16;;;;;;;7.50;4.80;;;;;;;11.08;59.98;100729.20;105999;1247;69183;-62
2023/05/06 00:46:44;;;;;;;10.00;4.40;;;;;;;11.07;59.86;100723.64;106077;1247;69166;-61
2023/05/06 00:49:12;;;;;;;12.70;4.10;;;;;;;11.07;60.18;100730.27;106150;1251;74332;-61
2023/05/06 00:51:41;;;;;;;5.80;4.20;;;;;;;11.08;60.24;100730.09;105986;1247;83939;-62
2023/05/06 00:54:09;;;;;;;8.00;4.50;;;;;;;11.08;60.06;100723.27;106026;1250;73063;-61
2023/05/06 00:56:38;;;;;;;9.70;5.10;;;;;;;11.06;60.25;100721.42;106028;1251;69208;-61
2023/05/06 00:59:06;;;;;;;10.60;4.60;;;;;;;11.03;60.48;100717.14;106023;1251;69173;-60
2023/05/06 01:01:34;;;;;;;7.10;4.70;;;;;;;11.03;60.55;100713.31;106090;1248;73818;-60
2023/05/06 01:04:02;;;;;;;9.60;4.70;;;;;;;11.01;60.52;100711.98;106097;1251;83193;-62
2023/05/06 01:06:57;;;;;;;7.90;4.60;;;;;;;10.98;60.55;100712.41;106039;1248;72700;-62
2023/05/06 01:09:56;;;;;;;7.40;3.90;;;;;;;10.97;60.77;100709.48;105771;1247;69084;-62
2023/05/06 01:12:45;;;;;;;9.10;5.00;;;;;;;10.96;60.76;100708.30;105899;1247;69150;-62
2023/05/06 01:15:21;;;;;;;11.40;4.80;;;;;;;10.93;60.82;100707.50;106045;1247;73025;-62
2023/05/06 01:17:50;;;;;;;7.60;4.20;;;;;;;10.92;60.95;100710.86;106042;1247;83824;-63
2023/05/06 01:20:20;;;;;;;9.70;4.10;;;;;;;10.94;60.88;100709.77;105970;1248;73278;-62
2023/05/06 01:22:48;;;;;;;9.80;4.30;;;;;;;10.94;60.84;100710.96;105989;1248;69071;-62
2023/05/06 01:25:20;;;;;;;7.10;4.20;;;;;;;10.94;60.89;100712.52;106064;1248;69155;-62
2023/05/06 01:27:49;;;;;;;10.00;4.80;;;;;;;10.95;61.07;100717.23;106008;1247;72992;-62
2023/05/06 01:30:18;;;;;;;7.50;4.50;;;;;;;10.97;60.92;100719.13;106130;1251;83481;-62
2023/05/06 01:33:03;;;;;;;7.90;4.20;;;;;;;10.95;61.02;100720.55;106002;1248;73783;-62
2023/05/06 01:35:48;;;;;;;8.20;4.70;;;;;;;10.94;61.15;100729.14;106081;1247;69522;-62
2023/05/06 01:38:33;;;;;;;9.10;4.60;;;;;;;10.96;61.51;100729.08;106113;1247;69160;-62
2023/05/06 01:41:02;;;;;;;10.10;4.90;;;;;;;10.97;61.25;100734.83;106146;1251;74428;-62
2023/05/06 01:43:36;;;;;;;7.50;4.30;;;;;;;10.99;61.39;100734.42;106088;1247;83484;-62
2023/05/06 01:46:05;;;;;;;10.80;5.10;;;;;;;10.99;61.51;100738.96;106088;1248;73746;-62
2023/05/06 01:48:36;;;;;;;7.70;4.60;;;;;;;10.99;61.53;100739.69;106049;1248;69188;-62
2023/05/06 01:51:04;;;;;;;10.00;4.70;;;;;;;10.97;61.69;100740.95;106058;1248;69176;-62
2023/05/06 01:53:32;;;;;;;8.50;4.40;;;;;;;10.98;61.97;100747.41;105967;1250;73067;-62
2023/05/06 01:56:01;;;;;;;6.30;4.00;;;;;;;10.97;62.02;100748.48;106040;1251;83347;-62
2023/05/06 01:58:29;;;;;;;9.30;4.20;;;;;;;10.98;62.14;100749.66;105938;1247;72822;-62
2023/05/06 02:00:57;;;;;;;8.50;4.60;;;;;;;10.99;62.20;100753.29;106135;1247;69767;-62
2023/05/06 02:03:25;;;;;;;7.00;4.00;;;;;;;10.98;62.44;100761.74;106059;1251;69115;-63
2023/05/06 02:05:54;;;;;;;7.30;4.40;;;;;;;10.98;63.00;100770.14;106128;1251;74457;-62
2023/05/06 02:08:24;;;;;;;8.00;3.90;;;;;;;10.97;63.06;100765.43;106054;1247;84509;-62
2023/05/06 02:10:52;;;;;;;6.40;4.10;;;;;;;10.95;63.20;100765.30;106091;1248;73158;-62
2023/05/06 02:13:22;;;;;;;7.60;4.70;;;;;;;10.94;63.56;100764.98;106080;1247;69164;-62
2023/05/06 02:15:53;;;;;;;8.40;4.50;;;;;;;10.91;63.64;100776.65;105995;1253;69103;-62
2023/05/06 02:18:22;;;;;;;9.90;4.40;;;;;;;10.84;64.19;100780.16;106103;1247;74069;-62
2023/05/06 02:20:50;;;;;;;7.10;4.10;;;;;;;10.81;64.53;100776.25;106083;1251;83499;-63
2023/05/06 02:23:19;;;;;;;7.10;4.20;;;;;;;10.80;64.74;100776.46;106001;1247;73721;-63
2023/05/06 02:25:47;;;;;;;6.60;4.30;;;;;;;10.78;65.00;100771.64;106015;1251;69192;-62
2023/05/06 02:28:15;;;;;;;6.50;4.10;;;;;;;10.79;65.07;100768.31;106053;1248;69188;-62
2023/05/06 02:30:43;;;;;;;9.50;4.60;;;;;;;10.77;65.36;100765.20;105961;1252;72669;-62
2023/05/06 02:33:11;;;;;;;7.40;4.20;;;;;;;10.73;65.69;100762.71;105884;1251;83481;-61
2023/05/06 02:35:39;;;;;;;10.70;4.70;;;;;;;10.69;66.11;100761.59;105707;1254;73796;-62
2023/05/06 02:38:08;;;;;;;6.00;4.00;;;;;;;10.65;66.22;100765.92;105861;1253;69193;-61
2023/05/06 02:40:37;;;;;;;7.20;4.60;;;;;;;10.61;66.46;100767.10;105863;1252;69112;-61
2023/05/06 02:43:05;;;;;;;7.80;4.10;;;;;;;10.55;67.28;100767.27;105723;1250;72957;-61
2023/05/06 02:45:34;;;;;;;10.10;4.50;;;;;;;10.52;67.36;100762.15;105898;1249;83345;-62
2023/05/06 02:48:02;;;;;;;9.60;4.60;;;;;;;10.41;67.52;100762.13;105806;1253;72783;-62
2023/05/06 02:50:31;;;;;;;7.10;4.30;;;;;;;10.31;68.10;100765.06;105862;1253;69105;-62
2023/05/06 02:52:59;;;;;;;12.30;4.90;;;;;;;10.23;68.14;100765.59;105893;1250;69161;-62
2023/05/06 02:55:27;;;;;;;9.20;4.60;;;;;;;10.11;68.35;100764.21;105846;1253;72982;-62
2023/05/06 02:57:55;;;;;;;7.30;4.80;;;;;;;10.01;68.98;100759.96;105867;1251;83501;-61
2023/05/06 03:00:23;;;;;;;10.00;5.10;;;;;;;9.96;69.46;100759.76;105835;1249;72768;-62
2023/05/06 03:02:52;;;;;;;9.80;4.70;;;;;;;9.88;69.78;100759.99;105933;1253;69215;-61
2023/05/06 03:05:20;;;;;;;9.20;4.60;;;;;;;9.81;70.12;100761.75;105841;1253;69074;-62
2023/05/06 03:07:48;;;;;;;8.40;4.60;;;;;;;9.76;70.27;100762.95;105764;1251;73739;-61
2023/05/06 03:10:17;;;;;;;7.40;4.80;;;;;;;9.70;70.53;100766.07;105742;1253;83283;-62
2023/05/06 03:12:45;;;;;;;6.80;4.80;;;;;;;9.65;70.95;100765.01;105825;1249;74069;-62
2023/05/06 03:15:14;;;;;;;11.30;4.70;;;;;;;9.62;71.16;100759.85;105707;1253;69221;-62
2023/05/06 03:17:42;;;;;;;10.00;5.10;;;;;;;9.58;71.51;100763.28;105713;1250;69225;-62
2023/05/06 03:20:11;;;;;;;9.20;4.30;;;;;;;9.52;71.84;100761.52;105879;1249;73773;-62
2023/05/06 03:22:42;;;;;;;8.60;4.60;;;;;;;9.50;72.22;100760.86;105668;1250;83432;-62
2023/05/06 03:25:11;;;;;;;8.60;4.90;;;;;;;9.47;72.38;100760.06;105767;1252;73884;-62
2023/05/06 03:27:40;;;;;;;10.50;4.60;;;;;;;9.46;72.43;100753.99;105728;1250;69168;-63
2023/05/06 03:30:15;;;;;;;6.00;4.40;;;;;;;9.42;72.59;100746.08;105716;1254;69253;-63
2023/05/06 03:32:43;;;;;;;10.20;5.20;;;;;;;9.39;72.91;100745.11;105868;1253;74240;-63
2023/05/06 03:35:14;;;;;;;7.10;5.00;;;;;;;9.36;72.98;100751.64;106046;1247;83473;-62
2023/05/06 03:37:44;;;;;;;9.50;4.90;;;;;;;9.32;73.17;100745.12;106002;1248;75156;-63
2023/05/06 03:40:12;;;;;;;8.70;4.90;;;;;;;9.30;73.63;100739.42;106052;1248;69181;-63
2023/05/06 03:42:40;;;;;;;10.80;4.70;;;;;;;9.30;74.02;100739.43;106020;1251;69247;-62
2023/05/06 03:45:09;;;;;;;7.60;5.00;;;;;;;9.27;74.21;100740.35;106102;1247;74076;-62
2023/05/06 03:47:38;;;;;;;7.20;5.10;;;;;;;9.26;74.46;100738.48;106034;1251;83822;-63
2023/05/06 03:50:07;;;;;;;8.00;4.80;;;;;;;9.24;74.58;100740.09;106063;1247;72573;-62
2023/05/06 03:52:36;;;;;;;8.30;4.80;;;;;;;9.22;74.68;100737.20;106020;1247;69183;-62
2023/05/06 03:55:06;;;;;;;8.10;4.60;;;;;;;9.20;75.01;100739.52;106042;1248;69382;-63
2023/05/06 03:57:35;;;;;;;7.90;4.60;;;;;;;9.16;75.04;100739.27;106081;1251;73138;-62
2023/05/06 04:00:05;;;;;;;8.50;4.90;;;;;;;9.10;75.01;100736.28;106070;1251;83151;-62
2023/05/06 04:02:42;;;;;;;7.80;4.90;;;;;;;9.07;75.58;100734.61;106049;1248;72396;-62
2023/05/06 04:05:16;;;;;;;7.60;4.90;;;;;;;9.07;75.72;100732.86;106075;1248;69106;-62
2023/05/06 04:07:45;;;;;;;6.20;4.80;;;;;;;9.06;75.79;100732.71;106038;1247;69039;-62
2023/05/06 04:10:13;;;;;;;8.50;5.40;;;;;;;9.04;75.97;100732.07;106060;1248;73866;-60
2023/05/06 04:12:42;;;;;;;7.00;5.20;;;;;;;9.02;76.00;100737.16;106058;1247;82642;-61
2023/05/06 04:15:12;;;;;;;10.10;5.40;;;;;;;9.02;76.20;100737.52;105962;1247;73834;-61
2023/05/06 04:17:42;;;;;;;9.30;5.10;;;;;;;9.01;76.38;100739.48;105963;1248;69169;-61
2023/05/06 04:20:11;;;;;;;8.00;5.00;;;;;;;9.02;76.51;100740.33;105995;1248;69160;-61
2023/05/06 04:22:40;;;;;;;10.70;5.30;;;;;;;9.02;76.83;100738.41;106130;1248;74213;-62
2023/05/06 04:25:09;;;;;;;6.90;5.10;;;;;;;9.02;76.91;100734.73;106044;1248;83528;-62
2023/05/06 04:27:38;;;;;;;9.40;4.70;;;;;;;9.02;76.78;100731.60;106009;1253;73654;-61
2023/05/06 04:30:09;;;;;;;7.60;5.10;;;;;;;9.01;76.74;100725.71;106070;1247;69207;-61
2023/05/06 04:32:39;;;;;;;8.80;4.60;;;;;;;9.00;77.18;100727.63;106071;1251;69284;-61
2023/05/06 04:35:08;;;;;;;7.70;4.50;;;;;;;8.99;77.28;100728.70;106072;1251;73028;-61
2023/05/06 04:37:38;;;;;;;5.70;4.70;;;;;;;9.00;77.51;100726.42;106000;1247;83434;-61
2023/05/06 04:40:14;;;;;;;11.00;5.10;;;;;;;9.00;77.63;100724.16;106034;1251;72762;-62
2023/05/06 04:42:43;;;;;;;7.40;4.30;;;;;;;8.97;77.95;100722.85;105981;1247;69167;-61
2023/05/06 04:45:16;;;;;;;6.70;4.60;;;;;;;8.95;77.54;100722.88;106062;1251;69566;-61
2023/05/06 04:47:47;;;;;;;8.20;4.90;;;;;;;8.93;77.84;100718.92;106021;1253;72117;-62
2023/05/06 04:50:16;;;;;;;7.80;4.70;;;;;;;8.93;78.00;100719.96;106062;1248;83408;-62
2023/05/06 04:52:44;;;;;;;6.30;4.80;;;;;;;8.93;78.37;100720.14;105960;1253;72516;-62
2023/05/06 04:55:13;;;;;;;11.00;4.80;;;;;;;8.93;78.52;100719.98;106014;1251;69170;-61
2023/05/06 04:57:46;;;;;;;9.90;4.90;;;;;;;8.96;78.95;100716.75;106032;1252;69102;-62
2023/05/06 05:00:15;;;;;;;9.40;4.80;;;;;;;8.98;79.06;100716.20;106037;1247;72978;-61
2023/05/06 05:02:43;;;;;;;7.90;4.90;;;;;;;8.99;79.20;100710.24;106085;1251;83421;-61
2023/05/06 05:05:13;;;;;;;9.90;4.90;;;;;;;9.00;79.35;100709.35;105969;1253;74129;-60
2023/05/06 05:07:42;;;;;;;7.40;4.70;;;;;;;9.03;79.61;100711.17;106064;1251;69122;-60
2023/05/06 05:10:10;;;;;;;7.30;5.10;;;;;;;9.03;79.64;100709.79;105873;1249;69182;-60
2023/05/06 05:12:38;;;;;;;6.70;4.60;;;;;;;9.00;79.27;100711.78;105853;1252;74221;-61
2023/05/06 05:15:07;;;;;;;6.00;4.50;;;;;;;9.00;79.71;100706.91;106100;1253;83471;-60
2023/05/06 05:17:36;;;;;;;9.10;4.90;;;;;;;9.01;79.99;100701.29;105838;1248;74631;-61
2023/05/06 05:20:06;;;;;;;13.80;5.20;;;;;;;9.01;79.93;100703.57;106074;1247;69167;-61
2023/05/06 05:22:36;;;;;;;8.80;4.80;;;;;;;9.01;80.06;100703.05;106025;1252;69161;-61
2023/05/06 05:25:06;;;;;;;7.80;5.20;;;;;;;8.99;79.79;100706.77;106114;1247;74079;-61
2023/05/06 05:27:35;;;;;;;7.70;5.10;;;;;;;8.93;79.86;100707.59;105875;1247;82518;-61
2023/05/06 05:30:04;;;;;;;8.20;5.10;;;;;;;8.91;80.02;100708.70;105915;1253;72716;-60
2023/05/06 05:32:34;;;;;;;8.40;4.90;;;;;;;8.88;80.36;100712.08;106039;1251;69186;-61
2023/05/06 05:35:04;;;;;;;9.90;5.20;;;;;;;8.88;80.53;100713.27;106156;1253;69151;-61
2023/05/06 05:37:33;;;;;;;8.50;4.90;;;;;;;8.89;80.76;100713.45;106008;1247;72064;-60
2023/05/06 05:40:02;;;;;;;11.80;5.30;;;;;;;8.89;80.94;100711.52;106040;1247;83798;-61
2023/05/06 05:42:32;;;;;;;8.20;4.70;;;;;;;8.88;80.75;100711.55;105996;1247;73589;-60
2023/05/06 05:45:03;;;;;;;10.00;5.10;;;;;;;8.86;81.01;100705.86;106081;1248;69163;-59
2023/05/06 05:47:32;;;;;;;7.30;5.00;;;;;;;8.86;81.12;100705.69;106132;1247;69072;-59
2023/05/06 05:50:01;;;;;;;9.30;5.20;;;;;;;8.81;80.88;100710.50;106065;1248;74092;-59
2023/05/06 05:52:30;;;;;;;7.90;5.10;;;;;;;8.74;81.20;100712.60;106112;1248;82765;-59
2023/05/06 05:54:59;;;;;;;8.80;5.60;;;;;;;8.70;81.67;100710.96;105884;1253;73609;-59
2023/05/06 05:57:27;;;;;;;11.20;5.80;;;;;;;8.69;81.61;100709.59;106002;1247;69060;-59
2023/05/06 05:59:56;;;;;;;6.60;5.20;;;;;;;8.68;81.64;100711.00;106055;1252;69733;-60
2023/05/06 06:02:24;;;;;;;10.10;5.50;;;;;;;8.67;81.99;100709.81;106020;1251;73202;-60
2023/05/06 06:04:53;;;;;;;11.20;5.50;;;;;;;8.63;81.99;100711.14;105903;1253;83162;-60
2023/05/06 06:07:23;;;;;;;8.50;5.00;;;;;;;8.61;82.28;100710.66;105924;1247;72741;-60
2023/05/06 06:09:51;;;;;;;9.30;5.30;;;;;;;8.60;82.53;100706.84;105868;1250;69183;-60
2023/05/06 06:12:19;;;;;;;8.90;5.20;;;;;;;8.61;82.80;100709.25;105854;1252;69170;-61
2023/05/06 06:14:47;;;;;;;10.20;5.80;;;;;;;8.62;82.70;100709.77;105994;1252;73060;-61
2023/05/06 06:17:18;;;;;;;8.40;5.60;;;;;;;8.62;82.82;100704.00;105932;1248;84401;-60
2023/05/06 06:19:46;;;;;;;7.80;5.20;;;;;;;8.64;83.29;100701.86;105837;1248;73195;-60
2023/05/06 06:22:14;;;;;;;7.50;5.60;;;;;;;8.66;83.31;100695.89;105906;1251;69172;-60
2023/05/06 06:24:43;;;;;;;8.60;5.30;;;;;;;8.68;83.03;100694.29;106032;1248;69140;-60
2023/05/06 06:27:12;;;;;;;13.30;6.60;;;;;;;8.67;82.87;100695.17;105805;1253;74101;-60
2023/05/06 06:29:40;;;;;;;8.90;5.70;;;;;;;8.65;83.27;100695.23;105889;1248;82577;-60
2023/05/06 06:32:08;;;;;;;10.00;5.70;;;;;;;8.65;83.47;100689.98;105811;1253;74050;-60
2023/05/06 06:34:36;;;;;;;8.20;5.70;;;;;;;8.65;83.43;100681.28;105922;1253;69225;-60
2023/05/06 06:37:04;;;;;;;10.20;6.00;;;;;;;8.65;83.63;100675.90;105883;1247;69054;-59
2023/05/06 06:39:35;;;;;;;12.40;6.10;;;;;;;8.63;83.29;100679.77;106009;1247;73440;-60
2023/05/06 06:42:03;;;;;;;10.60;5.60;;;;;;;8.60;83.20;100680.37;105877;1252;82514;-60
2023/05/06 06:44:36;;;;;;;8.70;5.70;;;;;;;8.58;83.56;100683.03;105864;1251;73872;-60
2023/05/06 06:47:04;;;;;;;10.00;5.50;;;;;;;8.57;83.47;100680.43;105995;1248;69095;-60
2023/05/06 06:49:32;;;;;;;10.90;5.80;;;;;;;8.57;83.69;100679.92;105919;1247;69170;-60
2023/05/06 06:52:01;;;;;;;9.60;6.10;;;;;;;8.57;84.08;100678.52;105984;1248;73805;-60
2023/05/06 06:54:29;;;;;;;10.30;6.10;;;;;;;8.59;84.06;100675.88;105815;1247;83471;-60
2023/05/06 06:56:57;;;;;;;12.60;5.80;;;;;;;8.58;84.02;100681.80;105992;1250;72796;-60
2023/05/06 06:59:25;;;;;;;14.00;5.90;;;;;;;8.60;84.04;100678.30;105869;1253;69283;-60
2023/05/06 07:01:53;;;;;;;9.40;5.60;;;;;;;8.65;84.49;100672.05;105913;1247;69148;-62
2023/05/06 07:04:23;;;;;;;10.40;5.90;;;;;;;8.71;84.34;100674.00;105935;1253;74257;-60
2023/05/06 07:06:52;;;;;;;8.90;5.50;;;;;;;8.74;84.23;100675.67;106034;1247;83055;-61
2023/05/06 07:09:20;;;;;;;8.40;4.80;;;;;;;8.78;84.78;100672.23;105822;1247;73873;-59
2023/05/06 07:11:48;;;;;;;8.80;5.50;;;;;;;8.85;84.72;100678.53;106071;1248;69143;-62
2023/05/06 07:14:16;;;;;;;8.20;5.40;;;;;;;8.93;84.82;100681.64;106125;1252;69198;-60
2023/05/06 07:16:44;;;;;;;8.50;5.30;;;;;;;9.01;84.97;100683.87;106078;1253;73988;-60
2023/05/06 07:19:14;;;;;;;;;;;;;;;9.06;84.70;100679.38;105997;1252;83274;-60
2023/05/06 07:21:43;;;;;;;11.10;5.30;;;;;;;9.09;84.89;100676.15;106206;1253;73449;-60
2023/05/06 07:24:11;;;;;;;8.30;5.80;;;;;;;9.16;85.06;100667.25;106121;1252;69316;-60
2023/05/06 07:26:39;;;;;;;7.50;5.30;;;;;;;9.24;85.09;100670.52;106061;1253;69199;-60
2023/05/06 07:29:07;;;;;;;9.50;5.70;;;;;;;9.27;84.50;100669.75;105921;1252;74259;-60
2023/05/06 07:31:35;;;;;;;8.20;5.20;;;;;;;9.28;84.34;100670.76;105879;1248;82330;-60
2023/05/06 07:34:04;;;;;;;7.80;5.60;;;;;;;9.27;84.49;100667.84;105856;1252;72748;-60
2023/05/06 07:36:39;;;;;;;8.50;5.70;;;;;;;9.28;84.46;100669.36;105978;1253;69122;-60
2023/05/06 07:39:07;;;;;;;8.30;5.20;;;;;;;9.28;84.63;100665.70;106210;1251;69204;-60
2023/05/06 07:41:35;;;;;;;8.50;5.40;;;;;;;9.27;84.75;100661.73;106081;1247;74199;-59
2023/05/06 07:44:04;;;;;;;9.40;5.30;;;;;;;9.29;84.80;100657.83;105864;1253;83583;-60
2023/05/06 07:46:32;;;;;;;7.90;5.30;;;;;;;9.32;84.69;100654.61;105919;1248;72591;-60
2023/05/06 07:49:01;;;;;;;7.60;5.20;;;;;;;9.32;84.52;100651.82;105992;1248;69080;-60
2023/05/06 07:51:30;;;;;;;7.90;5.40;;;;;;;9.33;84.61;100654.75;105857;1248;69051;-60
2023/05/06 07:53:58;;;;;;;9.10;5.70;;;;;;;9.36;85.03;100654.14;106045;1253;74410;-60
2023/05/06 07:56:26;;;;;;;10.40;5.90;;;;;;;9.40;84.60;100659.63;105893;1253;83316;-60
2023/05/06 07:58:54;;;;;;;8.50;5.30;;;;;;;9.43;84.74;100652.05;105890;1247;74413;-60
2023/05/06 08:01:23;;;;;;;8.80;5.60;;;;;;;9.47;84.75;100657.52;105929;1248;69090;-60
2023/05/06 08:03:51;;;;;;;8.70;5.30;;;;;;;9.47;84.56;100657.33;106050;1248;69534;-61
2023/05/06 08:06:19;;;;;;;8.60;6.30;;;;;;;9.46;84.57;100653.17;105905;1248;73876;-61
2023/05/06 08:08:47;;;;;;;10.00;5.40;;;;;;;9.47;84.60;100652.63;106105;1247;82807;-60
2023/05/06 08:11:16;;;;;;;8.00;5.20;;;;;;;9.49;84.67;100656.59;106035;1252;73152;-63
2023/05/06 08:13:46;;;;;;;7.40;5.70;;;;;;;9.51;85.04;100654.42;106322;1253;69166;-61
2023/05/06 08:16:14;;;;;;;6.80;5.50;;;;;;;9.57;85.13;100654.24;106015;1248;69189;-63
2023/05/06 08:18:43;;;;;;;9.80;5.50;;;;;;;9.63;85.12;100652.70;106136;1253;73228;-61
2023/05/06 08:21:11;;;;;;;8.20;5.70;;;;;;;9.69;84.88;100649.73;105976;1253;83352;-61
2023/05/06 08:23:39;;;;;;;10.10;6.00;;;;;;;9.71;84.51;100660.64;105970;1252;73424;-60
2023/05/06 08:26:07;;;;;;;7.40;5.60;;;;;;;9.68;84.52;100670.18;105873;1253;69172;-62
2023/05/06 08:28:35;;;;;;;7.10;5.20;;;;;;;9.69;84.36;100668.92;105893;1253;69492;-60
2023/05/06 08:31:04;;;;;;;8.80;6.00;;;;;;;9.68;84.72;100677.16;106117;1253;74101;-62
2023/05/06 08:33:32;;;;;;;9.70;5.70;;;;;;;9.70;85.14;100678.66;106070;1248;83366;-62
2023/05/06 08:36:00;;;;;;;12.30;6.20;;;;;;;9.76;85.20;100673.93;105921;1251;72796;-62
2023/05/06 08:38:29;;;;;;;10.00;5.70;;;;;;;9.81;85.19;100674.83;105840;1253;69098;-62
2023/05/06 08:40:59;;;;;;;7.80;5.90;;;;;;;9.84;84.95;100669.88;105885;1253;69285;-61
2023/05/06 08:43:31;;;;;;;9.60;6.20;;;;;;;9.88;85.01;100667.49;105967;1252;74219;-61
2023/05/06 08:46:00;;;;;;;9.40;5.90;;;;;;;9.94;84.97;100665.56;105897;1252;83885;-61
2023/05/06 08:48:28;;;;;;;9.00;6.50;;;;;;;10.01;84.69;100668.13;106023;1248;73435;-61
2023/05/06 08:51:00;;;;;;;9.40;6.40;;;;;;;10.08;84.92;100674.73;106013;1252;69115;-61
2023/05/06 08:53:29;;;;;;;8.90;5.50;;;;;;;10.17;84.74;100681.80;106049;1252;69036;-61
2023/05/06 08:56:02;;;;;;;8.80;5.80;;;;;;;10.19;84.50;100678.58;106120;1252;74289;-61
2023/05/06 08:58:42;;;;;;;8.20;5.70;;;;;;;10.26;84.82;100681.55;106096;1253;83593;-60
2023/05/06 09:01:10;;;;;;;12.30;6.00;;;;;;;10.35;84.92;100685.11;106048;1248;73846;-60
2023/05/06 09:03:38;;;;;;;12.70;6.40;;;;;;;10.39;84.52;100689.69;106013;1249;69191;-60
2023/05/06 09:06:06;;;;;;;15.30;8.90;;;;;;;10.42;84.28;100687.85;105887;1253;69204;-61
2023/05/06 09:08:35;;;;;;;10.40;6.60;;;;;;;10.40;84.14;100688.45;105891;1252;73124;-60
2023/05/06 09:11:18;;;;;;;8.80;5.70;;;;;;;10.37;83.97;100687.49;105938;1247;82534;-61
2023/05/06 09:13:46;;;;;;;11.70;7.20;;;;;;;10.31;83.81;100683.31;105928;1247;72338;-60
2023/05/06 09:16:28;;;;;;;11.10;6.70;;;;;;;10.30;84.19;100681.59;105977;1247;69268;-60
2023/05/06 09:18:58;;;;;;;9.50;5.90;;;;;;;10.34;84.17;100678.17;105956;1253;69288;-60
2023/05/06 09:21:32;;;;;;;7.70;5.80;;;;;;;10.29;83.65;100680.39;106006;1253;73496;-60
2023/05/06 09:24:02;;;;;;;8.90;5.80;;;;;;;10.22;83.62;100681.27;105972;1247;82911;-60
2023/05/06 09:26:31;;;;;;;9.80;6.40;;;;;;;10.20;83.93;100678.20;106022;1247;72757;-60
2023/05/06 09:29:00;;;;;;;8.40;5.80;;;;;;;10.24;84.07;100678.61;105999;1248;69079;-60
2023/05/06 09:31:29;;;;;;;11.50;5.80;;;;;;;10.24;84.08;100677.72;106008;1247;69166;-60
2023/05/06 09:33:59;;;;;;;13.50;6.40;;;;;;;10.29;84.61;100676.02;106102;1247;74176;-60
2023/05/06 09:36:27;;;;;;;8.80;5.80;;;;;;;10.36;84.31;100678.98;105910;1248;83426;-59
2023/05/06 09:38:56;;;;;;;9.00;6.20;;;;;;;10.36;84.06;100685.42;105909;1253;73766;-61
2023/05/06 09:41:24;;;;;;;10.20;6.30;;;;;;;10.29;83.92;100689.48;105923;1253;69216;-60
2023/05/06 09:43:54;;;;;;;9.90;6.90;;;;;;;10.26;84.05;100693.73;105903;1248;69058;-60
2023/05/06 09:46:23;;;;;;;9.10;6.00;;;;;;;10.25;84.16;100698.83;105950;1253;74191;-60
2023/05/06 09:48:54;;;;;;;7.80;6.30;;;;;;;10.22;84.27;100701.36;105985;1252;83201;-60
2023/05/06 09:51:22;;;;;;;8.30;6.30;;;;;;;10.24;84.53;100705.50;106211;1251;73194;-59
2023/05/06 09:53:51;;;;;;;10.40;6.20;;;;;;;10.22;84.29;100709.59;106121;1248;69106;-60
2023/05/06 09:56:20;;;;;;;11.00;6.20;;;;;;;10.19;84.35;100712.10;106135;1253;69190;-60
2023/05/06 09:58:49;;;;;;;8.60;6.10;;;;;;;10.18;84.49;100712.67;106159;1252;74137;-59
2023/05/06 10:01:17;;;;;;;9.40;6.10;;;;;;;10.21;84.91;100714.84;106111;1247;83345;-61
2023/05/06 10:04:08;;;;;;;9.10;6.20;;;;;;;10.26;85.12;100713.48;106022;1250;71682;-60
2023/05/06 10:06:39;;;;;;;10.10;6.60;;;;;;;10.30;84.88;100711.11;106076;1248;69304;-60
2023/05/06 10:09:08;;;;;;;8.60;6.50;;;;;;;10.36;85.03;100713.55;106073;1248;69178;-60
2023/05/06 10:11:37;;;;;;;11.00;6.60;;;;;;;10.43;85.04;100710.02;106069;1251;73559;-61
2023/05/06 10:14:06;;;;;;;8.60;6.50;;;;;;;10.48;84.73;100710.55;106157;1248;82541;-60
2023/05/06 10:16:35;;;;;;;9.70;7.00;;;;;;;10.56;85.01;100710.84;105918;1248;73820;-61
2023/05/06 10:19:05;;;;;;;8.40;6.40;;;;;;;10.60;84.43;100706.48;106132;1251;69070;-61
2023/05/06 10:21:35;;;;;;;9.20;6.90;;;;;;;10.63;84.34;100701.53;105982;1249;69249;-61
2023/05/06 10:24:10;;;;;;;10.50;7.10;;;;;;;10.64;84.52;100692.05;106111;1248;74168;-61
2023/05/06 10:26:39;;;;;;;11.20;7.80;;;;;;;10.64;84.22;100686.62;106058;1249;82505;-61
2023/05/06 10:29:09;;;;;;;11.20;7.50;;;;;;;10.66;84.59;100686.04;105997;1253;74029;-61
2023/05/06 10:31:43;;;;;;;13.20;8.70;;;;;;;10.67;84.61;100688.80;106109;1248;69121;-61
2023/05/06 10:34:11;;;;;;;9.70;7.20;;;;;;;10.67;84.55;100691.09;106169;1249;69110;-60
2023/05/06 10:36:41;;;;;;;11.40;6.70;;;;;;;10.69;84.85;100685.25;105939;1253;74250;-60
2023/05/06 10:39:12;;;;;;;9.80;7.20;;;;;;;10.72;84.79;100680.08;106050;1253;83355;-60
2023/05/06 10:41:41;;;;;;;10.30;6.90;;;;;;;10.73;84.66;100677.25;105952;1249;73851;-61
2023/05/06 10:44:09;;;;;;;11.10;7.00;;;;;;;10.74;85.03;100676.33;106003;1252;69149;-60
2023/05/06 10:46:58;;;;;;;10.30;7.20;;;;;;;10.77;84.97;100680.78;106135;1250;69108;-61
2023/05/06 10:49:26;;;;;;;9.60;7.20;;;;;;;10.75;84.95;100679.45;106119;1248;74095;-61
2023/05/06 10:52:10;;;;;;;9.90;7.20;;;;;;;10.71;84.77;100682.21;106136;1253;83463;-61
2023/05/06 10:54:50;;;;;;;8.80;6.50;;;;;;;10.69;84.76;100686.64;106121;1248;73794;-61
2023/05/06 10:57:21;;;;;;;11.30;7.30;;;;;;;10.69;85.08;100692.05;106334;1253;69112;-61
2023/05/06 10:59:49;;;;;;;10.00;7.10;;;;;;;10.69;85.26;100694.66;106101;1252;69195;-61
2023/05/06 11:02:18;;;;;;;12.60;7.50;;;;;;;10.68;85.12;100699.40;106107;1253;72414;-61
2023/05/06 11:04:51;;;;;;;10.20;7.00;;;;;;;10.64;84.97;100707.06;106179;1247;83985;-61
2023/05/06 11:07:21;;;;;;;13.90;7.00;;;;;;;10.61;85.24;100707.50;105962;1248;73744;-61
2023/05/06 11:09:54;;;;;;;11.40;7.40;;;;;;;10.60;85.23;100708.08;106071;1253;69176;-61
2023/05/06 11:12:51;;;;;;;11.50;7.50;;;;;;;10.60;85.55;100711.39;106059;1248;69183;-62
2023/05/06 11:15:26;;;;;;;10.90;7.10;;;;;;;10.62;85.60;100701.90;106192;1248;74007;-62
2023/05/06 11:17:55;;;;;;;12.60;7.10;;;;;;;10.63;85.62;100709.23;106109;1251;83178;-62
2023/05/06 11:20:24;;;;;;;11.00;7.20;;;;;;;10.61;85.62;100716.61;106004;1248;72782;-62
2023/05/06 11:22:53;;;;;;;10.00;8.00;;;;;;;10.56;85.45;100720.61;106116;1248;69191;-62
2023/05/06 11:25:41;;;;;;;14.20;8.20;;;;;;;10.52;85.44;100714.25;106236;1252;69112;-61
2023/05/06 11:28:11;;;;;;;10.10;7.80;;;;;;;10.52;85.64;100703.80;106090;1252;74085;-61
2023/05/06 11:30:43;;;;;;;12.30;7.90;;;;;;;10.55;85.97;100708.58;106177;1252;83484;-61
2023/05/06 11:33:18;;;;;;;13.30;8.30;;;;;;;10.57;85.80;100720.59;106073;1248;72730;-61